Lampang Airport
VTCL : now visible

Airfield :











YOU CAN JOIN US ON...

 
LOGIN :

Register | Disclaimer

   EN    FR    IT 

 









Legend :    VFR   Marginal VFR   IFR   Intensive IFR   Very Intensive IFR
Visi :
Ceiling :
>= 8 km
>= 3000ft
5 to 8 km
1000 to 3000 ft
1500m to 5 km
500 to 1000 ft
800 to 1500m
200 to 500 ft
< 800m
< 200 ft
Symbols :   Thunderstorms  Fog  Heavy snow  Heavy precipitations  Wind > 20 kt






- Airport Elevation : 811 ft
- IATA code : LPT


VTCL - Lampang

CURRENT METAR :
  • 171200Z 20003KT 9999 FEW030 35/19 Q1005 NOSIG

EXPIRED METARs :
  • 171100Z 20003KT 170V240 9999 FEW030 37/18 Q1004 NOSIG
  • 171000Z 24006KT 200V280 9999 FEW030 38/17 Q1004 NOSIG
  • 170900Z 20005KT 150V260 9999 FEW030 39/17 Q1004 NOSIG
  • 170800Z VRB03KT 9999 FEW030 39/18 Q1005 NOSIG

TAF TAF VTCL
Valid from the 17 at 12:00 until the 18 at 12:00 UTC


171100Z 1712/1812 16005KT 9999 FEW030
BECMG 1802/1804 25005KT
BECMG 1809/1811 16005KT
VTBB FIR / Asia



MET'MAP, your aeronautical weather chart ! - Copyright ORBIFLY December 2007 - Disclaimer

ORBIFLY MET'MAP TEAM :

Programming & Development : Alexandra Zaïnal
Original concept : Baudouin d'Aumeries
Technical & hardware support : Manuel Goepfert
Assistance : Marc-Olivier Méhu




SOURCES & CREDITS :

   NOAA       Earth
Advisory